createdAt,value
2022-12-01T00:02:42.845Z,49.80
2022-12-01T00:05:44.296Z,48.92
2022-12-01T00:08:47.654Z,48.60
2022-12-01T00:14:50.378Z,49.63
2022-12-01T00:17:51.729Z,48.13
2022-12-01T00:20:53.082Z,50.25
2022-12-01T00:23:57.294Z,48.65
2022-12-01T00:26:58.643Z,47.28
2022-12-01T00:29:59.990Z,47.33
2022-12-01T00:33:01.326Z,49.50
2022-12-01T00:36:03.856Z,49.40
2022-12-01T00:39:05.216Z,50.27
2022-12-01T00:42:11.744Z,50.63
2022-12-01T00:45:14.682Z,49.65
2022-12-01T00:48:16.123Z,49.80
2022-12-01T00:51:17.466Z,50.28
2022-12-01T00:54:18.871Z,49.35
2022-12-01T00:57:20.227Z,49.22
2022-12-01T01:00:23.534Z,48.75
2022-12-01T01:03:25.678Z,45.50
2022-12-01T01:06:27.056Z,47.60
2022-12-01T01:09:28.488Z,49.13
2022-12-01T01:12:29.964Z,48.03
2022-12-01T01:15:31.845Z,47.08
2022-12-01T01:18:33.822Z,49.42
2022-12-01T01:21:35.372Z,48.25
2022-12-01T01:24:36.931Z,48.40
2022-12-01T01:27:38.280Z,48.97
2022-12-01T01:30:40.361Z,47.78
2022-12-01T01:33:42.026Z,47.58
2022-12-01T01:36:43.398Z,48.08
2022-12-01T01:39:44.804Z,46.67
2022-12-01T01:42:46.141Z,47.95
2022-12-01T01:45:47.497Z,46.35
2022-12-01T01:49:11.238Z,46.50
2022-12-01T01:52:13.341Z,47.20
2022-12-01T01:55:15.453Z,46.15
2022-12-01T01:58:16.986Z,47.95
2022-12-01T02:01:18.424Z,45.97
2022-12-01T02:04:20.425Z,46.45
2022-12-01T02:07:21.866Z,47.45
2022-12-01T02:11:10.639Z,46.33
2022-12-01T02:14:38.994Z,45.47
2022-12-01T02:18:02.144Z,45.58
2022-12-01T02:21:41.034Z,47.10
2022-12-01T02:25:27.127Z,46.13
2022-12-01T02:28:53.956Z,45.03
2022-12-01T02:31:59.078Z,47.17
2022-12-01T02:35:39.059Z,46.88
2022-12-01T02:38:51.792Z,47.15
2022-12-01T02:42:07.150Z,47.03
2022-12-01T02:45:14.943Z,43.70
2022-12-01T02:48:25.647Z,49.10
2022-12-01T02:51:30.406Z,46.92
2022-12-01T02:54:33.431Z,47.75
2022-12-01T02:57:34.787Z,47.08
2022-12-01T03:00:36.620Z,47.15
2022-12-01T03:03:53.669Z,45.88
2022-12-01T03:07:12.618Z,47.35
2022-12-01T03:10:31.864Z,45.17
2022-12-01T03:13:45.991Z,46.35
2022-12-01T03:16:51.544Z,48.65
2022-12-01T03:19:59.263Z,46.83
2022-12-01T03:23:08.740Z,45.17
2022-12-01T03:26:17.073Z,48.00
2022-12-01T03:29:26.496Z,46.80
2022-12-01T03:32:41.060Z,47.08
2022-12-01T03:35:53.906Z,45.17
2022-12-01T03:39:01.037Z,47.97
2022-12-01T03:42:10.421Z,44.45
2022-12-01T03:45:18.210Z,46.15
2022-12-01T03:48:19.682Z,45.17
2022-12-01T03:51:56.255Z,46.00
2022-12-01T03:55:00.610Z,46.90
2022-12-01T03:58:07.973Z,45.38
2022-12-01T04:01:09.660Z,44.88
2022-12-01T04:04:13.812Z,47.22
2022-12-01T04:07:15.214Z,43.53
2022-12-01T04:10:16.654Z,45.95
2022-12-01T04:13:18.131Z,45.50
2022-12-01T04:16:19.490Z,45.83
2022-12-01T04:19:20.927Z,44.58
2022-12-01T04:22:23.435Z,46.22
2022-12-01T04:25:24.823Z,48.27
2022-12-01T04:28:26.643Z,44.88
2022-12-01T04:31:28.598Z,47.17
2022-12-01T04:34:29.984Z,48.25
2022-12-01T04:37:31.324Z,46.67
2022-12-01T04:40:32.797Z,46.45
2022-12-01T04:43:34.172Z,47.65
2022-12-01T04:46:35.606Z,48.15
2022-12-01T04:49:37.101Z,48.03
2022-12-01T04:52:38.476Z,47.65
2022-12-01T04:55:39.937Z,48.25
2022-12-01T04:58:41.353Z,46.75
2022-12-01T05:01:42.912Z,46.90
2022-12-01T05:04:44.457Z,48.80
2022-12-01T05:07:45.894Z,46.45
2022-12-01T05:10:47.294Z,46.70
2022-12-01T05:13:49.212Z,51.40
2022-12-01T05:16:50.872Z,47.55
2022-12-01T05:19:52.266Z,49.70
2022-12-01T05:23:05.213Z,47.72
2022-12-01T05:26:09.227Z,47.83
2022-12-01T05:29:11.666Z,47.42
2022-12-01T05:32:13.059Z,48.20
2022-12-01T05:35:14.633Z,45.30
2022-12-01T05:38:16.448Z,46.47
2022-12-01T05:41:17.830Z,47.20
2022-12-01T05:44:19.557Z,47.80
2022-12-01T05:47:20.952Z,47.78
2022-12-01T05:50:23.306Z,47.83
2022-12-01T05:53:24.774Z,48.65
2022-12-01T05:56:26.201Z,46.70
2022-12-01T05:59:28.338Z,46.58
2022-12-01T06:02:29.724Z,46.05
2022-12-01T06:05:31.490Z,47.80
2022-12-01T06:08:32.914Z,48.10
2022-12-01T06:11:34.265Z,45.55
2022-12-01T06:14:35.616Z,46.05
2022-12-01T06:17:40.182Z,46.70
2022-12-01T06:20:41.997Z,48.58
2022-12-01T06:23:43.323Z,48.33
2022-12-01T06:26:44.688Z,45.05
2022-12-01T06:29:46.020Z,45.97
2022-12-01T06:32:47.370Z,48.15
2022-12-01T06:35:48.725Z,45.33
2022-12-01T06:38:50.081Z,45.85
2022-12-01T06:41:51.417Z,48.83
2022-12-01T06:44:52.758Z,45.55
2022-12-01T06:47:55.302Z,45.40
2022-12-01T06:51:00.597Z,49.47
2022-12-01T06:54:05.493Z,46.38
2022-12-01T06:57:07.182Z,46.05
2022-12-01T07:00:09.477Z,45.80
2022-12-01T07:03:10.978Z,45.97
2022-12-01T07:06:12.331Z,45.67
2022-12-01T07:09:13.691Z,44.67
2022-12-01T07:12:15.021Z,48.55
2022-12-01T07:15:16.521Z,46.08
2022-12-01T07:18:18.346Z,49.97
2022-12-01T07:21:19.775Z,48.72
2022-12-01T07:24:21.130Z,48.10
2022-12-01T07:27:22.538Z,46.72
2022-12-01T07:30:28.253Z,46.85
2022-12-01T07:33:30.738Z,47.92
2022-12-01T07:36:32.205Z,46.95
2022-12-01T07:39:33.561Z,47.58
2022-12-01T07:42:34.887Z,45.05
2022-12-01T07:45:36.423Z,49.17
2022-12-01T07:48:38.961Z,45.85
2022-12-01T07:51:40.356Z,47.10
2022-12-01T07:54:41.698Z,44.78
2022-12-01T07:57:43.038Z,46.88
2022-12-01T08:00:44.429Z,48.85
2022-12-01T08:03:48.242Z,48.17
2022-12-01T08:06:49.592Z,45.78
2022-12-01T08:09:51.264Z,46.20
2022-12-01T08:12:52.917Z,47.80
2022-12-01T08:15:54.434Z,46.55
2022-12-01T08:18:55.864Z,47.42
2022-12-01T08:21:57.360Z,44.85
2022-12-01T08:24:58.800Z,46.58
2022-12-01T08:28:00.765Z,43.30
2022-12-01T08:31:14.458Z,45.15
2022-12-01T08:34:15.872Z,44.80
2022-12-01T08:37:17.244Z,44.90
2022-12-01T08:40:18.684Z,46.58
2022-12-01T08:43:49.477Z,46.38
2022-12-01T08:46:41.386Z,44.50
2022-12-01T08:49:42.762Z,44.10
2022-12-01T08:52:44.081Z,48.28
2022-12-01T08:55:45.410Z,44.35
2022-12-01T08:58:46.802Z,41.88
2022-12-01T09:01:48.242Z,45.05
2022-12-01T09:04:50.259Z,42.65
2022-12-01T09:07:51.686Z,41.65
2022-12-01T09:10:53.455Z,41.78
2022-12-01T09:13:54.943Z,41.55
2022-12-01T09:16:56.287Z,42.70
2022-12-01T09:19:57.604Z,40.53
2022-12-01T09:22:58.924Z,39.22
2022-12-01T09:26:00.367Z,39.28
2022-12-01T09:29:05.940Z,37.85
2022-12-01T09:32:07.267Z,38.53
2022-12-01T09:35:08.636Z,38.58
2022-12-01T09:38:09.989Z,40.80
2022-12-01T09:41:18.855Z,37.75
2022-12-01T09:44:56.944Z,39.75
2022-12-01T09:48:02.601Z,38.28
2022-12-01T09:51:04.017Z,37.90
2022-12-01T09:54:10.587Z,39.17
2022-12-01T09:57:28.364Z,35.88
2022-12-01T10:00:34.023Z,36.38
2022-12-01T10:03:43.548Z,36.00
2022-12-01T10:07:03.307Z,35.28
2022-12-01T10:10:14.477Z,35.55
2022-12-01T10:13:20.187Z,36.47
2022-12-01T10:16:32.572Z,35.70
2022-12-01T10:19:42.570Z,34.78
2022-12-01T10:22:58.922Z,38.53
2022-12-01T10:26:07.970Z,35.35
2022-12-01T10:29:16.502Z,37.08
2022-12-01T10:32:30.298Z,34.60
2022-12-01T10:35:33.134Z,33.58
2022-12-01T10:38:37.303Z,36.33
2022-12-01T10:41:39.788Z,31.48
2022-12-01T10:44:42.050Z,25.90
2022-12-01T10:48:09.519Z,26.05
2022-12-01T10:51:17.302Z,25.65
2022-12-01T10:54:20.102Z,25.38
2022-12-01T10:57:21.557Z,27.92
2022-12-01T11:00:57.952Z,26.25
2022-12-01T11:03:52.022Z,26.52
2022-12-01T11:06:53.568Z,25.40
2022-12-01T11:10:04.321Z,26.75
2022-12-01T11:13:14.928Z,28.20
2022-12-01T11:16:34.131Z,26.85
2022-12-01T11:19:35.562Z,25.60
2022-12-01T11:22:38.201Z,24.83
2022-12-01T11:25:39.572Z,25.70
2022-12-01T11:29:02.992Z,23.98
2022-12-01T11:32:32.989Z,26.55
2022-12-01T11:35:37.869Z,26.38
2022-12-01T11:38:39.270Z,25.92
2022-12-01T11:41:40.735Z,26.58
2022-12-01T11:44:55.367Z,25.92
2022-12-01T11:48:12.026Z,24.58
2022-12-01T11:51:19.344Z,24.13
2022-12-01T11:54:26.161Z,22.67
2022-12-01T11:57:34.816Z,22.65
2022-12-01T12:00:57.387Z,22.90
2022-12-01T12:04:12.320Z,21.42
2022-12-01T12:07:42.821Z,22.02
2022-12-01T12:10:59.496Z,23.50
2022-12-01T12:14:10.115Z,24.73
2022-12-01T12:17:24.462Z,25.75
2022-12-01T12:20:47.158Z,24.10
2022-12-01T12:24:09.183Z,24.77
2022-12-01T12:27:15.668Z,21.70
2022-12-01T12:30:21.645Z,23.70
2022-12-01T12:34:07.576Z,20.17
2022-12-01T12:37:26.229Z,21.95
2022-12-01T12:40:54.689Z,20.38
2022-12-01T12:43:58.916Z,20.15
2022-12-01T12:47:26.733Z,20.23
2022-12-01T12:50:49.628Z,21.27
2022-12-01T12:54:07.819Z,22.73
2022-12-01T12:57:35.544Z,19.08
2022-12-01T13:00:42.376Z,20.85
2022-12-01T13:03:55.588Z,22.35
2022-12-01T13:07:05.213Z,21.42
2022-12-01T13:10:20.240Z,23.10
2022-12-01T13:13:30.781Z,21.17
2022-12-01T13:16:37.792Z,19.95
2022-12-01T13:19:41.153Z,21.10
2022-12-01T13:25:49.084Z,17.85
2022-12-01T13:28:56.039Z,17.48
2022-12-01T13:31:57.406Z,20.08
2022-12-01T13:35:00.310Z,20.58
2022-12-01T13:38:33.150Z,24.38
2022-12-01T13:41:38.385Z,21.77
2022-12-01T13:44:45.864Z,28.42
2022-12-01T13:47:47.196Z,21.42
2022-12-01T13:50:59.027Z,21.55
2022-12-01T13:54:28.051Z,20.00
2022-12-01T13:57:34.532Z,20.52
2022-12-01T14:00:36.074Z,19.42
2022-12-01T14:03:39.631Z,16.60
2022-12-01T14:06:44.126Z,18.17
2022-12-01T14:09:45.899Z,18.83
2022-12-01T14:12:49.049Z,17.27
2022-12-01T14:15:55.731Z,18.27
2022-12-01T14:18:58.972Z,18.92
2022-12-01T14:22:02.080Z,16.13
2022-12-01T14:25:28.765Z,18.30
2022-12-01T14:29:00.082Z,18.30
2022-12-01T14:32:01.360Z,18.08
2022-12-01T14:35:05.085Z,18.63
2022-12-01T14:38:09.912Z,18.70
2022-12-01T14:41:22.791Z,19.08
2022-12-01T14:44:33.104Z,19.13
2022-12-01T14:47:52.436Z,18.77
2022-12-01T14:51:09.506Z,20.88
2022-12-01T14:54:18.270Z,20.48
2022-12-01T14:57:24.509Z,18.65
2022-12-01T15:00:26.429Z,19.58
2022-12-01T15:03:34.042Z,21.27
2022-12-01T15:06:37.289Z,19.17
2022-12-01T15:09:58.699Z,18.35
2022-12-01T15:13:14.399Z,18.58
2022-12-01T15:16:18.980Z,19.88
2022-12-01T15:19:37.623Z,18.77
2022-12-01T15:22:41.085Z,18.58
2022-12-01T15:25:45.482Z,18.30
2022-12-01T15:28:46.926Z,18.20
2022-12-01T15:31:51.771Z,16.98
2022-12-01T15:34:55.288Z,17.58
2022-12-01T15:41:28.416Z,16.98
2022-12-01T15:44:41.505Z,19.52
2022-12-01T15:47:42.786Z,16.70
2022-12-01T15:50:58.598Z,16.27
2022-12-01T15:54:01.358Z,16.30
2022-12-01T15:57:02.993Z,17.10
2022-12-01T16:00:04.939Z,15.25
2022-12-01T16:03:14.517Z,16.08
2022-12-01T16:06:16.272Z,15.95
2022-12-01T16:09:20.652Z,15.23
2022-12-01T16:12:24.564Z,15.27
2022-12-01T16:15:25.969Z,15.18
2022-12-01T16:18:34.216Z,15.38
2022-12-01T16:21:43.069Z,15.65
2022-12-01T16:24:50.835Z,14.38
2022-12-01T16:27:56.991Z,14.18
2022-12-01T16:30:58.676Z,14.63
2022-12-01T16:34:13.998Z,13.32
2022-12-01T16:40:25.702Z,13.13
2022-12-01T16:43:28.548Z,12.45
2022-12-01T16:46:29.997Z,13.38
2022-12-01T16:49:31.375Z,14.60
2022-12-01T16:52:48.267Z,12.93
2022-12-01T16:55:53.749Z,13.80
2022-12-01T16:58:55.161Z,13.30
2022-12-01T17:01:56.609Z,13.00
2022-12-01T17:04:57.970Z,13.68
2022-12-01T17:07:59.941Z,13.85
2022-12-01T17:11:05.099Z,13.00
2022-12-01T17:14:06.516Z,13.30
2022-12-01T17:17:07.854Z,14.77
2022-12-01T17:20:10.548Z,13.50
2022-12-01T17:23:11.934Z,13.23
2022-12-01T17:26:16.253Z,14.02
2022-12-01T17:29:17.600Z,14.82
2022-12-01T17:32:18.976Z,14.50
2022-12-01T17:35:20.294Z,13.85
2022-12-01T17:38:21.632Z,14.07
2022-12-01T17:41:23.006Z,16.42
2022-12-01T17:44:24.335Z,14.07
2022-12-01T17:47:26.284Z,13.82
2022-12-01T17:50:27.608Z,13.88
2022-12-01T17:53:28.945Z,14.80
2022-12-01T17:56:30.824Z,14.15
2022-12-01T17:59:32.156Z,14.35
2022-12-01T18:02:34.017Z,15.25
2022-12-01T18:05:35.419Z,15.05
2022-12-01T18:08:36.862Z,14.10
2022-12-01T18:11:38.238Z,14.13
2022-12-01T18:14:39.574Z,15.90
2022-12-01T18:17:40.884Z,15.35
2022-12-01T18:20:43.533Z,16.17
2022-12-01T18:23:56.661Z,15.57
2022-12-01T18:26:58.030Z,15.80
2022-12-01T18:29:59.350Z,15.50
2022-12-01T18:33:01.244Z,15.90
2022-12-01T18:36:03.574Z,14.85
2022-12-01T18:39:06.542Z,14.48
2022-12-01T18:42:07.886Z,15.75
2022-12-01T18:45:09.620Z,15.30
2022-12-01T18:48:10.963Z,14.73
2022-12-01T18:51:12.874Z,14.55
2022-12-01T18:54:15.746Z,15.23
2022-12-01T18:57:17.084Z,14.98
2022-12-01T19:00:18.791Z,15.57
2022-12-01T19:03:20.417Z,14.77
2022-12-01T19:06:22.385Z,16.23
2022-12-01T19:09:23.925Z,17.98
2022-12-01T19:12:25.349Z,17.13
2022-12-01T19:15:26.732Z,14.38
2022-12-01T19:18:28.065Z,14.38
2022-12-01T19:21:29.421Z,14.45
2022-12-01T19:24:30.745Z,14.05
2022-12-01T19:27:32.154Z,14.50
2022-12-01T19:30:34.715Z,15.25
2022-12-01T19:33:36.106Z,15.63
2022-12-01T19:36:37.450Z,14.93
2022-12-01T19:39:38.842Z,16.35
2022-12-01T19:42:41.111Z,16.45
2022-12-01T19:45:42.543Z,16.33
2022-12-01T19:48:44.454Z,16.23
2022-12-01T19:51:45.807Z,16.48
2022-12-01T19:54:47.149Z,17.30
2022-12-01T19:57:51.632Z,17.20
2022-12-01T20:00:52.995Z,16.17
2022-12-01T20:03:54.855Z,16.30
2022-12-01T20:06:56.249Z,19.33
2022-12-01T20:09:57.604Z,17.48
2022-12-01T20:12:58.980Z,19.10
2022-12-01T20:16:05.768Z,18.55
2022-12-01T20:19:07.593Z,20.23
2022-12-01T20:22:08.971Z,18.45
2022-12-01T20:25:10.445Z,17.80
2022-12-01T20:28:11.793Z,18.45
2022-12-01T20:31:20.633Z,18.95
2022-12-01T20:34:25.457Z,20.02
2022-12-01T20:37:26.847Z,21.15
2022-12-01T20:40:28.234Z,19.45
2022-12-01T20:43:30.205Z,19.70
2022-12-01T20:46:31.722Z,19.63
2022-12-01T20:49:33.186Z,18.15
2022-12-01T20:52:34.742Z,18.00
2022-12-01T20:55:36.726Z,18.30
2022-12-01T20:58:39.259Z,19.85
2022-12-01T21:01:40.633Z,18.90
2022-12-01T21:04:42.147Z,18.58
2022-12-01T21:07:43.618Z,19.08
2022-12-01T21:10:45.841Z,19.73
2022-12-01T21:13:47.176Z,19.27
2022-12-01T21:16:48.707Z,20.13
2022-12-01T21:19:55.904Z,20.15
2022-12-01T21:23:08.587Z,19.83
2022-12-01T21:26:14.120Z,20.23
2022-12-01T21:29:17.672Z,20.92
2022-12-01T21:32:31.125Z,20.58
2022-12-01T21:35:32.473Z,20.40
2022-12-01T21:38:33.796Z,22.17
2022-12-01T21:41:35.159Z,22.35
2022-12-01T21:44:37.192Z,19.77
2022-12-01T21:47:38.590Z,21.33
2022-12-01T21:50:39.946Z,21.85
2022-12-01T21:53:41.428Z,21.27
2022-12-01T21:56:42.790Z,21.65
2022-12-01T21:59:44.173Z,20.58
